This is the latest recevied weather packets stored in our database for station/object YO6RK-13. If no packets are shown the sender has not sent any weather packets the latest 10 day(s).
| Time | Temp. | Humidity | Pressure | Rain* | Wind** | Luminosity | Snow |
|---|---|---|---|---|---|---|---|
| 1777974939 | 25° C | 34% | 1013.8 hPa | 0 mm | - | - | - |
| 1777971617 | 22.22° C | 38% | 1014.6 hPa | 0 mm | - | - | - |
| 1777967726 | 20° C | 46% | 1014.8 hPa | 0 mm | - | - | - |
| 1777966523 | 19.44° C | 48% | 1015.1 hPa | 0 mm | - | - | - |
| 1777965338 | 18.33° C | 53% | 1015.1 hPa | 0 mm | - | - | - |
| 1777962024 | 13.89° C | 63% | 1015.2 hPa | 0 mm | - | - | - |
| 1777961130 | 13.33° C | 65% | 1015.4 hPa | 0 mm | - | - | - |
| 1777960218 | 12.22° C | 68% | 1015.5 hPa | 0 mm | - | - | - |
| 1777959333 | 11.67° C | 69% | 1015.4 hPa | 0 mm | - | - | - |
| 1777958429 | 11.11° C | 72% | 1015.3 hPa | 0 mm | - | - | - |
| 1777957519 | 10° C | 73% | 1015.3 hPa | 0 mm | - | - | - |
| 1777956038 | 8.33° C | 80% | 1015.2 hPa | 0 mm | - | - | - |
| 1777954817 | 7.22° C | 82% | 1015.1 hPa | 0 mm | - | - | - |
| 1777951526 | 6.11° C | 85% | 1014.8 hPa | 0 mm | - | - | - |
| 1777950323 | 5.56° C | 86% | 1014.6 hPa | 0 mm | - | - | - |
| 1777944628 | 6.11° C | 85% | 1014.4 hPa | 0 mm | - | - | - |
| 1777944027 | 6.11° C | 84% | 1014.4 hPa | 0 mm | - | - | - |
| 1777941019 | 6.67° C | 82% | 1014.3 hPa | 0 mm | - | - | - |
| 1777939221 | 6.67° C | 82% | 1014.2 hPa | 0 mm | - | - | - |
| 1777938622 | 6.67° C | 82% | 1014 hPa | 0 mm | - | - | - |
| 1777937125 | 7.78° C | 80% | 1014.2 hPa | 0 mm | - | - | - |
| 1777935025 | 8.33° C | 77% | 1014.1 hPa | 0 mm | - | - | - |
| 1777931124 | 8.89° C | 75% | 1014.2 hPa | 0 mm | - | - | - |
| 1777926928 | 10° C | 78% | 1014 hPa | 0 mm | - | - | - |
| 1777922423 | 13.33° C | 73% | 1013.8 hPa | 0 mm | - | - | - |
* Rain latest hour (hover to see other rain measurements)
** Current wind speed in m/s (hover to see current wind gust speed)